Time;durP1;ratioP1;P1;durP2;ratioP2;P2;SDS_P1;SDS_P2;PMS_P1;PMS_P2;Temp;Humidity;BMP_temperature;BMP_pressure;BME280_temperature;BME280_humidity;BME280_pressure;Samples;Min_cycle;Max_cycle;Signal;HPM_P1;HPM_P2
2023/09/01 00:02:06;;;;;;;2.90;2.40;;;20.40;66.90;21.40;100406.00;;;;5008558;28;20672;-52
2023/09/01 00:04:32;;;;;;;2.73;2.27;;;20.40;67.00;21.40;100400.00;;;;5023663;28;20183;-52
2023/09/01 00:06:59;;;;;;;2.93;2.57;;;20.40;67.00;21.40;100405.00;;;;5025532;28;20179;-52
2023/09/01 00:09:25;;;;;;;3.00;2.50;;;20.30;67.00;21.40;100405.00;;;;5028161;28;20179;-51
2023/09/01 00:11:51;;;;;;;2.87;2.33;;;20.40;67.10;21.40;100406.00;;;;5028227;28;20269;-51
2023/09/01 00:14:16;;;;;;;2.50;2.30;;;20.30;67.00;21.40;100414.00;;;;5028480;28;20190;-51
2023/09/01 00:16:42;;;;;;;2.50;2.30;;;20.40;67.10;21.40;100406.00;;;;5028265;28;20260;-51
2023/09/01 00:19:08;;;;;;;2.53;2.33;;;20.30;67.00;21.40;100420.00;;;;5028103;28;20187;-52
2023/09/01 00:21:33;;;;;;;2.70;2.50;;;20.30;67.00;21.30;100410.00;;;;5028134;28;20210;-51
2023/09/01 00:24:02;;;;;;;2.73;2.40;;;20.30;67.00;21.30;100408.00;;;;5028015;28;20198;-52
2023/09/01 00:26:28;;;;;;;3.50;2.53;;;20.30;67.00;21.30;100412.00;;;;5027962;28;20545;-51
2023/09/01 00:28:53;;;;;;;3.33;2.70;;;20.30;67.00;21.30;100412.00;;;;5021169;28;20241;-51
2023/09/01 00:31:20;;;;;;;2.87;2.63;;;20.30;67.10;21.30;100404.00;;;;5032169;28;20261;-52
2023/09/01 00:33:46;;;;;;;2.60;2.23;;;20.30;67.20;21.30;100412.00;;;;5032017;28;20190;-51
2023/09/01 00:36:12;;;;;;;2.97;2.60;;;20.30;67.20;21.30;100402.00;;;;5013842;28;20820;-52
2023/09/01 00:38:37;;;;;;;2.67;2.40;;;20.30;67.30;21.30;100417.00;;;;5031529;28;20260;-51
2023/09/01 00:41:03;;;;;;;2.40;2.20;;;20.30;67.30;21.30;100395.00;;;;5031699;28;20575;-53
2023/09/01 00:43:29;;;;;;;3.23;2.50;;;20.30;67.30;21.20;100396.00;;;;5031911;28;20179;-52
2023/09/01 00:45:56;;;;;;;2.40;2.20;;;20.30;67.40;21.20;100381.00;;;;5031589;28;20258;-52
2023/09/01 00:48:22;;;;;;;3.23;2.60;;;20.20;67.30;21.30;100398.00;;;;5014112;28;20226;-52
2023/09/01 00:50:49;;;;;;;2.90;2.50;;;20.20;67.30;21.20;100396.00;;;;5013359;28;20704;-51
2023/09/01 00:53:15;;;;;;;2.60;2.40;;;20.20;67.40;21.20;100407.00;;;;5013710;28;20190;-52
2023/09/01 00:55:40;;;;;;;2.70;2.50;;;20.30;67.40;21.20;100406.00;;;;5031747;28;20653;-52
2023/09/01 00:58:06;;;;;;;2.47;2.27;;;20.20;67.40;21.20;100409.00;;;;5013874;28;20562;-52
2023/09/01 01:00:32;;;;;;;2.63;2.43;;;20.20;67.40;21.20;100392.00;;;;5031280;28;20211;-51
2023/09/01 01:03:07;;;;;;;2.87;2.50;;;20.20;67.40;21.20;100387.00;;;;5023469;28;20180;-52
2023/09/01 01:06:00;;;;;;;3.17;2.70;;;20.20;67.40;21.20;100394.00;;;;5013869;28;20272;-51
2023/09/01 01:09:10;;;;;;;3.00;2.60;;;20.20;67.50;21.00;100398.00;;;;4999558;28;20198;-51
2023/09/01 01:11:54;;;;;;;2.43;2.23;;;20.20;67.50;21.10;100398.00;;;;5015107;28;20233;-52
2023/09/01 01:14:30;;;;;;;2.43;2.23;;;20.20;67.50;21.10;100403.00;;;;5023416;28;20183;-52
2023/09/01 01:16:56;;;;;;;2.73;2.53;;;20.10;67.40;21.10;100382.00;;;;5031258;28;20206;-52
2023/09/01 01:19:50;;;;;;;2.87;2.47;;;20.20;67.50;21.10;100389.00;;;;5013232;28;20306;-52
2023/09/01 01:22:39;;;;;;;2.53;2.33;;;20.20;67.50;21.10;100387.00;;;;5000044;28;20183;-52
2023/09/01 01:25:09;;;;;;;2.50;2.30;;;20.20;67.50;21.00;100382.00;;;;4999762;28;20512;-52
2023/09/01 01:27:35;;;;;;;2.87;2.37;;;20.10;67.40;21.10;100383.00;;;;5013640;28;20183;-51
2023/09/01 01:30:00;;;;;;;3.23;2.60;;;20.10;67.50;21.10;100377.00;;;;5030396;28;20197;-51
2023/09/01 01:32:27;;;;;;;2.50;2.23;;;20.10;67.40;21.10;100383.00;;;;5031231;28;20197;-51
2023/09/01 01:35:22;;;;;;;2.77;2.40;;;20.10;67.50;21.10;100385.00;;;;5013240;28;20684;-51
2023/09/01 01:38:02;;;;;;;2.67;2.47;;;20.10;67.50;21.10;100387.00;;;;5016084;28;20226;-51
2023/09/01 01:40:29;;;;;;;3.20;2.70;;;20.10;67.50;21.10;100374.00;;;;5009735;28;20206;-51
2023/09/01 01:42:55;;;;;;;2.57;2.27;;;20.10;67.50;21.10;100379.00;;;;5032695;28;20187;-52
2023/09/01 01:45:22;;;;;;;2.50;2.30;;;20.10;67.50;21.10;100378.00;;;;5016746;28;20186;-52
2023/09/01 01:47:49;;;;;;;2.73;2.53;;;20.10;67.60;21.10;100379.00;;;;4996596;28;20181;-51
2023/09/01 01:50:14;;;;;;;2.90;2.60;;;20.10;67.60;21.10;100376.00;;;;4980369;28;20220;-52
2023/09/01 01:52:40;;;;;;;2.70;2.50;;;20.10;67.60;21.10;100375.00;;;;5031063;28;20190;-51
2023/09/01 01:55:07;;;;;;;2.57;2.37;;;20.10;67.60;21.10;100375.00;;;;5033826;28;20560;-51
2023/09/01 01:57:33;;;;;;;3.40;2.70;;;20.10;67.70;21.10;100378.00;;;;5052352;28;20204;-51
2023/09/01 01:59:59;;;;;;;2.60;2.40;;;20.10;67.90;21.10;100378.00;;;;5032341;28;20202;-51
2023/09/01 02:02:25;;;;;;;3.93;2.43;;;20.10;67.90;21.10;100373.00;;;;5026340;28;20622;-51
2023/09/01 02:04:51;;;;;;;3.00;2.60;;;20.10;67.90;21.10;100372.00;;;;5027031;28;20260;-51
2023/09/01 02:07:17;;;;;;;2.73;2.53;;;20.10;67.80;21.10;100381.00;;;;5030620;28;20187;-52
2023/09/01 02:09:42;;;;;;;2.67;2.40;;;20.10;67.80;21.10;100380.00;;;;5030652;28;20679;-51
2023/09/01 02:12:08;;;;;;;2.70;2.30;;;20.10;67.90;21.10;100373.00;;;;5038034;28;20183;-53
2023/09/01 02:14:37;;;;;;;3.23;2.40;;;20.00;67.80;21.00;100380.00;;;;5029540;28;20229;-51
2023/09/01 02:17:03;;;;;;;2.67;2.47;;;20.00;67.90;21.00;100369.00;;;;5031410;28;20214;-51
2023/09/01 02:19:29;;;;;;;3.03;2.60;;;20.00;67.90;21.00;100369.00;;;;5029854;28;20278;-52
2023/09/01 02:21:55;;;;;;;2.77;2.57;;;20.00;67.80;21.00;100372.00;;;;5029520;28;20707;-51
2023/09/01 02:24:21;;;;;;;2.63;2.43;;;20.00;67.90;21.00;100373.00;;;;5029817;28;20193;-51
2023/09/01 02:26:46;;;;;;;3.03;2.70;;;20.00;67.90;21.00;100374.00;;;;5029669;28;20174;-51
2023/09/01 02:29:12;;;;;;;2.53;2.33;;;20.00;68.00;20.90;100377.00;;;;5018642;28;20660;-51
2023/09/01 02:31:38;;;;;;;3.00;2.30;;;20.00;68.00;21.00;100376.00;;;;5024287;28;20286;-52
2023/09/01 02:34:05;;;;;;;2.70;2.50;;;20.00;68.00;20.90;100383.00;;;;5029569;28;20185;-52
2023/09/01 02:36:34;;;;;;;3.20;2.50;;;19.90;67.90;20.90;100374.00;;;;5029746;28;20189;-53
2023/09/01 02:39:00;;;;;;;3.47;2.40;;;19.90;67.90;20.90;100382.00;;;;5029495;28;20182;-51
2023/09/01 02:41:26;;;;;;;2.57;2.37;;;19.90;68.00;20.90;100383.00;;;;5029639;28;20225;-52
2023/09/01 02:43:52;;;;;;;3.60;2.60;;;19.90;68.00;20.90;100382.00;;;;5029752;28;20285;-51
2023/09/01 02:46:18;;;;;;;2.93;2.63;;;20.00;68.20;20.90;100392.00;;;;5029693;28;20637;-51
2023/09/01 02:48:44;;;;;;;3.03;2.63;;;19.90;68.00;20.90;100396.00;;;;5029496;28;20182;-51
2023/09/01 02:51:10;;;;;;;2.40;2.20;;;19.90;68.00;20.90;100390.00;;;;5028760;28;20217;-51
2023/09/01 02:53:36;;;;;;;3.03;2.23;;;19.90;68.10;20.90;100393.00;;;;5029357;28;20194;-51
2023/09/01 02:56:02;;;;;;;2.30;2.10;;;19.90;68.10;20.60;100385.00;;;;5029649;28;20190;-51
2023/09/01 02:58:28;;;;;;;2.30;2.10;;;19.90;68.20;20.90;100382.00;;;;5029349;28;20209;-52
2023/09/01 03:00:54;;;;;;;2.40;2.20;;;19.90;68.10;20.90;100393.00;;;;5011533;28;20774;-51
2023/09/01 03:03:20;;;;;;;2.53;2.33;;;19.90;68.20;20.60;100385.00;;;;5022295;28;20179;-52
2023/09/01 03:05:48;;;;;;;3.10;2.27;;;19.90;68.30;20.90;100393.00;;;;5030218;28;20178;-51
2023/09/01 03:08:14;;;;;;;3.50;2.50;;;19.90;68.30;20.90;100397.00;;;;5022416;28;20636;-52
2023/09/01 03:10:43;;;;;;;2.73;2.47;;;19.90;68.30;20.90;100393.00;;;;5029916;28;20211;-52
2023/09/01 03:13:09;;;;;;;2.67;2.30;;;19.90;68.40;20.80;100385.00;;;;5030318;28;20262;-51
2023/09/01 03:15:35;;;;;;;5.10;2.50;;;19.90;68.40;20.90;100384.00;;;;5030312;28;20704;-52
2023/09/01 03:18:00;;;;;;;2.67;2.30;;;19.90;68.50;20.80;100293.00;;;;5030123;28;20236;-52
2023/09/01 03:20:26;;;;;;;2.43;2.23;;;19.90;68.40;20.80;100361.00;;;;5029967;28;20566;-51
2023/09/01 03:22:52;;;;;;;2.80;2.50;;;19.90;68.40;20.80;100361.00;;;;5030209;28;20227;-53
2023/09/01 03:25:19;;;;;;;3.87;2.40;;;19.90;68.50;20.80;100351.00;;;;5022370;28;20213;-52
2023/09/01 03:27:44;;;;;;;2.50;2.30;;;19.80;68.50;20.80;100360.00;;;;5021976;28;20186;-52
2023/09/01 03:30:11;;;;;;;2.30;2.10;;;19.90;69.00;20.80;100351.00;;;;5011981;28;20297;-52
2023/09/01 03:32:37;;;;;;;3.00;2.10;;;19.90;68.80;20.80;100353.00;;;;5030004;28;20178;-51
2023/09/01 03:35:04;;;;;;;2.50;2.30;;;19.90;68.80;20.80;100352.00;;;;5030011;28;20265;-52
2023/09/01 03:37:30;;;;;;;2.60;2.40;;;19.90;68.70;20.80;100352.00;;;;5029901;28;20182;-51
2023/09/01 03:39:55;;;;;;;2.70;2.23;;;19.90;68.60;20.80;100374.00;;;;5035499;28;20205;-51
2023/09/01 03:42:21;;;;;;;2.67;2.40;;;19.90;68.60;20.80;100355.00;;;;5052906;28;20166;-56
2023/09/01 03:44:47;;;;;;;2.43;2.23;;;19.90;68.60;20.80;100359.00;;;;5022621;28;20598;-51
2023/09/01 03:47:13;;;;;;;2.50;2.30;;;19.90;68.70;20.80;100360.00;;;;5031236;28;20237;-51
2023/09/01 03:49:38;;;;;;;2.60;2.40;;;19.90;68.80;20.80;100358.00;;;;5030571;28;20185;-52
2023/09/01 03:52:04;;;;;;;2.40;2.20;;;19.90;69.00;20.80;100365.00;;;;5031684;28;20193;-51
2023/09/01 03:54:30;;;;;;;4.17;2.50;;;19.80;68.90;20.80;100355.00;;;;5019942;28;20191;-53
2023/09/01 03:56:56;;;;;;;2.50;2.30;;;19.90;69.00;20.80;100352.00;;;;5045930;28;20196;-52
2023/09/01 03:59:21;;;;;;;2.57;2.20;;;19.80;68.90;20.80;100359.00;;;;5030431;28;20411;-51
2023/09/01 04:01:47;;;;;;;2.30;2.10;;;19.80;68.80;20.80;100361.00;;;;4998567;28;20255;-51
2023/09/01 04:04:13;;;;;;;2.80;2.37;;;19.80;68.80;20.80;100353.00;;;;5008663;28;20328;-53
2023/09/01 04:06:39;;;;;;;2.47;2.27;;;19.80;68.90;20.80;100349.00;;;;5028725;28;20237;-52
2023/09/01 04:09:05;;;;;;;2.50;2.30;;;19.80;68.90;20.80;100337.00;;;;5020523;28;20766;-51
2023/09/01 04:11:32;;;;;;;2.67;2.17;;;19.80;68.90;20.80;100287.00;;;;5028879;28;20222;-52
2023/09/01 04:13:57;;;;;;;2.37;2.17;;;19.80;68.90;20.80;100356.00;;;;5029594;28;20532;-52
2023/09/01 04:16:24;;;;;;;2.30;2.10;;;19.80;68.90;20.80;100355.00;;;;5026667;28;20262;-53
2023/09/01 04:18:49;;;;;;;2.50;2.30;;;19.80;68.90;20.80;100355.00;;;;5028958;28;20274;-51
2023/09/01 04:21:15;;;;;;;2.40;2.20;;;19.80;68.90;20.70;100355.00;;;;5028858;28;20218;-52
2023/09/01 04:23:41;;;;;;;2.53;2.27;;;19.80;68.90;20.70;100357.00;;;;5029105;28;20178;-52
2023/09/01 04:26:07;;;;;;;2.40;2.20;;;19.80;68.90;20.70;100352.00;;;;5028721;28;20205;-52
2023/09/01 04:28:34;;;;;;;2.40;2.20;;;19.80;68.90;20.70;100350.00;;;;5028721;28;20237;-52
2023/09/01 04:31:02;;;;;;;2.60;2.07;;;19.70;68.80;20.70;100360.00;;;;5028284;28;20215;-52
2023/09/01 04:33:31;;;;;;;2.30;2.10;;;19.70;68.90;20.70;100356.00;;;;5028601;28;20201;-52
2023/09/01 04:35:59;;;;;;;2.60;2.40;;;19.80;69.00;20.70;100349.00;;;;5028475;28;20197;-51
2023/09/01 04:38:25;;;;;;;3.57;2.40;;;19.70;69.00;20.70;100354.00;;;;5026458;28;20235;-52
2023/09/01 04:40:56;;;;;;;3.53;2.30;;;19.70;69.00;20.70;100354.00;;;;5028173;28;20202;-52
2023/09/01 04:43:25;;;;;;;2.40;2.20;;;19.70;69.00;20.70;100350.00;;;;5028816;28;20179;-51
2023/09/01 04:45:51;;;;;;;3.13;2.00;;;19.70;69.00;20.70;100357.00;;;;5028740;28;20198;-52
2023/09/01 04:48:17;;;;;;;4.37;2.60;;;19.70;69.00;20.70;100367.00;;;;5028557;28;20233;-53
2023/09/01 04:50:43;;;;;;;2.50;2.30;;;19.70;69.00;20.70;100352.00;;;;5028524;28;20206;-52
2023/09/01 04:53:09;;;;;;;2.80;2.50;;;19.70;69.10;20.70;100359.00;;;;5028753;28;20189;-52
2023/09/01 04:55:36;;;;;;;3.90;2.43;;;19.70;69.00;20.70;100357.00;;;;5029106;28;20187;-52
2023/09/01 04:58:02;;;;;;;4.10;2.20;;;19.70;69.00;20.70;100355.00;;;;5028768;28;20647;-51
2023/09/01 05:00:27;;;;;;;3.40;2.10;;;19.70;69.00;20.70;100358.00;;;;5027785;28;20234;-52
2023/09/01 05:02:53;;;;;;;2.57;2.27;;;19.70;69.00;20.70;100356.00;;;;5022776;28;20660;-52
2023/09/01 05:05:19;;;;;;;2.93;2.20;;;19.70;69.00;20.70;100357.00;;;;5028582;28;20186;-52
2023/09/01 05:07:44;;;;;;;2.40;2.20;;;19.70;69.00;20.60;100366.00;;;;5028191;28;20183;-53
2023/09/01 05:10:10;;;;;;;5.43;2.50;;;19.70;69.80;20.60;100353.00;;;;5027503;28;20581;-51
2023/09/01 05:12:36;;;;;;;2.80;2.17;;;19.70;69.10;20.60;100365.00;;;;5028251;28;20647;-52
2023/09/01 05:15:03;;;;;;;6.90;2.30;;;19.70;69.00;20.70;100356.00;;;;5029046;28;20189;-53
2023/09/01 05:17:29;;;;;;;4.80;2.20;;;19.70;69.10;20.70;100351.00;;;;5030484;28;20283;-52
2023/09/01 05:19:58;;;;;;;4.37;2.30;;;19.70;69.00;20.60;100353.00;;;;5031173;28;20285;-52
2023/09/01 05:22:25;;;;;;;2.63;2.30;;;19.70;69.00;20.60;100365.00;;;;5034787;28;20664;-52
2023/09/01 05:24:51;;;;;;;2.30;2.10;;;19.70;69.00;20.60;100369.00;;;;5035226;28;20186;-51
2023/09/01 05:27:19;;;;;;;4.20;2.30;;;19.70;69.00;20.60;100363.00;;;;5030935;28;20316;-53
2023/09/01 05:29:47;;;;;;;2.47;2.20;;;19.60;69.00;20.60;100364.00;;;;5030808;28;20548;-52
2023/09/01 05:32:12;;;;;;;3.47;2.10;;;19.70;69.10;20.70;100368.00;;;;5031985;28;20205;-52
2023/09/01 05:34:39;;;;;;;4.77;2.20;;;19.60;68.90;20.60;100358.00;;;;5031234;28;20192;-52
2023/09/01 05:37:05;;;;;;;3.93;2.23;;;19.70;69.10;20.60;100356.00;;;;5030841;28;20279;-52
2023/09/01 05:39:30;;;;;;;2.13;1.93;;;19.60;68.90;20.60;100355.00;;;;5049051;28;20209;-52
2023/09/01 05:41:56;;;;;;;2.20;2.00;;;19.60;68.90;20.60;100354.00;;;;5040096;28;20678;-51
2023/09/01 05:44:22;;;;;;;4.03;2.47;;;19.60;69.00;20.60;100347.00;;;;5030323;28;20189;-52
2023/09/01 05:46:47;;;;;;;3.50;2.20;;;19.60;68.90;20.60;100353.00;;;;5030772;28;20179;-51
2023/09/01 05:49:13;;;;;;;2.07;1.90;;;19.60;69.00;20.60;100354.00;;;;5029507;28;20564;-52
2023/09/01 05:51:39;;;;;;;2.40;2.20;;;19.60;69.00;20.60;100349.00;;;;5030608;28;20201;-52
2023/09/01 05:54:05;;;;;;;2.33;2.10;;;19.60;69.00;20.60;100347.00;;;;5050814;28;20193;-52
2023/09/01 05:56:30;;;;;;;2.73;2.10;;;19.60;69.00;20.60;100349.00;;;;5037555;28;20184;-51
2023/09/01 05:58:56;;;;;;;2.90;2.17;;;19.60;68.90;20.60;100334.00;;;;5030509;28;20307;-52
2023/09/01 06:01:22;;;;;;;2.20;2.00;;;19.60;69.00;20.60;100342.00;;;;5027231;28;20314;-52
2023/09/01 06:03:47;;;;;;;2.60;2.03;;;19.60;69.00;20.60;100350.00;;;;5022220;28;20208;-52
2023/09/01 06:06:13;;;;;;;2.93;2.00;;;19.60;69.10;20.60;100358.00;;;;5010546;28;20657;-52
2023/09/01 06:08:39;;;;;;;2.43;2.00;;;19.60;69.20;20.60;100352.00;;;;5030953;28;20185;-52
2023/09/01 06:11:06;;;;;;;3.10;2.23;;;19.60;69.30;20.60;100346.00;;;;5031091;28;20228;-52
2023/09/01 06:13:32;;;;;;;2.00;1.80;;;19.60;69.20;20.60;100356.00;;;;5013720;28;20688;-52
2023/09/01 06:15:58;;;;;;;2.70;2.20;;;19.60;69.20;20.60;100355.00;;;;5030838;28;20181;-52
2023/09/01 06:18:24;;;;;;;2.23;2.03;;;19.60;69.30;20.60;100360.00;;;;5030815;28;20194;-52
2023/09/01 06:20:50;;;;;;;2.47;1.90;;;19.60;69.30;20.60;100357.00;;;;5030545;28;20207;-52
2023/09/01 06:23:17;;;;;;;2.30;2.10;;;19.60;69.20;20.60;100360.00;;;;5030844;28;20288;-52
2023/09/01 06:25:43;;;;;;;2.47;2.20;;;19.60;69.30;20.60;100363.00;;;;5029789;28;20567;-51
2023/09/01 06:28:08;;;;;;;2.40;2.20;;;19.60;69.30;20.60;100360.00;;;;5030229;28;20179;-52
2023/09/01 06:30:35;;;;;;;2.00;1.90;;;19.60;69.30;20.60;100376.00;;;;5030143;28;20205;-52
2023/09/01 06:33:02;;;;;;;2.17;2.00;;;19.60;69.30;20.60;100375.00;;;;5030568;28;20675;-52
2023/09/01 06:35:27;;;;;;;2.43;1.93;;;19.60;70.20;20.60;100391.00;;;;5030899;28;20605;-51
2023/09/01 06:37:53;;;;;;;2.10;1.90;;;19.60;69.40;20.60;100371.00;;;;5030778;28;20186;-51
2023/09/01 06:40:19;;;;;;;1.90;1.80;;;19.60;69.40;20.60;100376.00;;;;5030158;28;20210;-51
2023/09/01 06:42:45;;;;;;;2.30;2.10;;;19.60;69.60;20.60;100374.00;;;;5029862;28;20176;-52
2023/09/01 06:45:10;;;;;;;2.00;1.90;;;19.60;69.50;20.60;100373.00;;;;5029541;28;20246;-51
2023/09/01 06:47:36;;;;;;;2.17;1.93;;;19.60;69.50;20.60;100365.00;;;;5029511;28;20772;-51
2023/09/01 06:50:02;;;;;;;2.10;1.90;;;19.60;69.50;20.60;100357.00;;;;5028729;28;20209;-53
2023/09/01 06:52:27;;;;;;;2.20;2.00;;;19.60;69.50;20.60;100360.00;;;;5012376;28;20698;-53
2023/09/01 06:54:53;;;;;;;2.20;2.00;;;19.60;69.50;20.60;100360.00;;;;5029395;28;20185;-51
2023/09/01 06:57:19;;;;;;;2.00;1.90;;;19.50;69.50;20.60;100364.00;;;;5029788;28;20182;-52
2023/09/01 06:59:45;;;;;;;2.83;2.00;;;19.60;69.60;20.60;100353.00;;;;5026274;28;20209;-53
2023/09/01 07:02:10;;;;;;;1.90;1.80;;;19.60;69.60;20.60;100366.00;;;;5021048;28;20209;-52
2023/09/01 07:04:36;;;;;;;2.43;2.10;;;19.60;69.60;20.60;100362.00;;;;5029070;28;20192;-52
2023/09/01 07:07:02;;;;;;;2.20;2.00;;;19.60;69.70;20.60;100370.00;;;;5027708;28;20188;-51
2023/09/01 07:09:28;;;;;;;1.90;1.80;;;19.60;69.80;20.60;100373.00;;;;5029224;28;20171;-51
2023/09/01 07:11:53;;;;;;;2.13;1.93;;;19.60;69.90;20.60;100371.00;;;;5028224;28;20210;-50
2023/09/01 07:14:19;;;;;;;2.20;2.00;;;19.60;69.90;20.60;100361.00;;;;5021738;28;20183;-50
2023/09/01 07:16:45;;;;;;;3.30;2.00;;;19.60;70.00;20.60;100369.00;;;;5030227;28;20216;-51
2023/09/01 07:19:11;;;;;;;4.27;2.20;;;19.60;70.00;20.60;100358.00;;;;5029940;28;20186;-51
2023/09/01 07:21:37;;;;;;;2.77;1.90;;;19.60;70.10;20.60;100357.00;;;;5021758;28;20204;-52
2023/09/01 07:24:02;;;;;;;2.53;1.90;;;19.60;70.10;20.60;100357.00;;;;5029851;28;20187;-52
2023/09/01 07:26:28;;;;;;;2.10;2.00;;;19.60;70.10;20.60;100366.00;;;;5029994;28;20206;-51
2023/09/01 07:28:54;;;;;;;3.03;2.00;;;19.60;70.10;20.60;100355.00;;;;5029633;28;20178;-51
2023/09/01 07:31:20;;;;;;;1.93;1.83;;;19.60;70.10;20.60;100366.00;;;;5029800;28;20201;-52
2023/09/01 07:33:45;;;;;;;2.13;1.93;;;19.60;70.20;20.60;100370.00;;;;5029929;28;20186;-51
2023/09/01 07:36:11;;;;;;;1.97;1.80;;;19.60;70.20;20.60;100373.00;;;;5021050;28;20182;-51
2023/09/01 07:38:40;;;;;;;2.50;2.00;;;19.60;71.10;20.60;100373.00;;;;5036803;28;20174;-51
2023/09/01 07:41:07;;;;;;;2.20;2.00;;;19.60;70.20;20.60;100371.00;;;;5022880;28;20268;-51
2023/09/01 07:43:33;;;;;;;2.10;1.90;;;19.60;70.30;20.60;100367.00;;;;5016665;28;20243;-51
2023/09/01 07:46:00;;;;;;;2.93;2.00;;;19.60;70.30;20.60;100362.00;;;;5012156;28;20521;-52
2023/09/01 07:48:26;;;;;;;1.90;1.80;;;19.60;70.30;20.60;100374.00;;;;5016900;28;20183;-51
2023/09/01 07:50:52;;;;;;;1.90;1.80;;;19.60;70.50;20.60;100371.00;;;;5017174;28;20211;-53
2023/09/01 07:53:18;;;;;;;2.30;1.70;;;19.60;70.60;20.60;100376.00;;;;5034769;28;20249;-51
2023/09/01 07:55:43;;;;;;;2.57;2.00;;;19.60;70.70;20.60;100377.00;;;;5029279;28;20189;-51
2023/09/01 07:58:09;;;;;;;2.00;1.90;;;19.60;70.90;20.60;100375.00;;;;5029034;28;20245;-53
2023/09/01 08:00:37;;;;;;;1.80;1.70;;;19.60;71.10;20.60;100380.00;;;;5026797;28;20264;-51
2023/09/01 08:03:03;;;;;;;2.53;2.13;;;19.60;71.30;20.60;100380.00;;;;5024711;28;20604;-51
2023/09/01 08:05:29;;;;;;;2.93;1.83;;;19.50;71.30;20.60;100383.00;;;;5027343;28;20280;-51
2023/09/01 08:07:55;;;;;;;2.20;2.00;;;19.60;71.60;20.60;100378.00;;;;5025366;28;20176;-51
2023/09/01 08:10:20;;;;;;;2.20;2.00;;;19.60;71.60;20.60;100389.00;;;;5028468;28;20210;-51
2023/09/01 08:12:46;;;;;;;2.20;2.00;;;19.60;71.70;20.60;100382.00;;;;5028862;28;20676;-51
2023/09/01 08:15:12;;;;;;;5.13;2.13;;;19.60;71.80;20.60;100384.00;;;;5025675;28;20733;-52
2023/09/01 08:17:38;;;;;;;2.80;1.80;;;19.60;71.90;20.70;100384.00;;;;5028154;28;20189;-51
2023/09/01 08:20:04;;;;;;;2.20;2.00;;;19.60;72.20;20.70;100403.00;;;;5010654;28;20293;-50
2023/09/01 08:22:31;;;;;;;3.33;2.10;;;19.60;72.40;20.70;100398.00;;;;5025037;28;20185;-51
2023/09/01 08:24:57;;;;;;;2.50;2.00;;;19.60;72.60;20.70;100397.00;;;;5024094;28;20833;-51
2023/09/01 08:27:25;;;;;;;2.13;2.00;;;19.60;72.80;20.70;100394.00;;;;5029037;28;20264;-51
2023/09/01 08:29:51;;;;;;;3.07;2.20;;;19.60;72.90;20.70;100407.00;;;;5026418;28;20270;-51
2023/09/01 08:32:16;;;;;;;2.20;2.00;;;19.60;72.90;20.70;100413.00;;;;5028548;28;20720;-51
2023/09/01 08:34:42;;;;;;;2.30;2.00;;;19.60;72.90;20.70;100407.00;;;;5028781;28;20268;-50
2023/09/01 08:37:08;;;;;;;2.17;1.90;;;19.60;73.00;20.70;100398.00;;;;5010489;28;20186;-51
2023/09/01 08:39:34;;;;;;;2.20;2.00;;;19.60;73.00;20.70;100406.00;;;;5020283;28;20189;-51
2023/09/01 08:41:59;;;;;;;2.17;1.97;;;19.60;72.90;20.70;100393.00;;;;5025866;28;20785;-50
2023/09/01 08:44:26;;;;;;;2.97;2.00;;;19.60;72.90;20.60;100393.00;;;;5010374;28;20185;-50
2023/09/01 08:46:55;;;;;;;2.33;1.90;;;19.60;73.60;20.60;100409.00;;;;5002736;28;20182;-50
2023/09/01 08:49:21;;;;;;;2.47;1.90;;;19.60;73.30;20.60;100404.00;;;;5012046;28;20216;-50
2023/09/01 08:51:53;;;;;;;2.63;1.90;;;19.60;73.10;20.60;100406.00;;;;5009504;28;20664;-51
2023/09/01 08:54:19;;;;;;;3.50;2.00;;;19.60;73.20;20.60;100400.00;;;;5030236;28;20224;-50
2023/09/01 08:56:45;;;;;;;2.73;1.93;;;19.60;73.30;20.60;100411.00;;;;5018299;28;20205;-51
2023/09/01 08:59:10;;;;;;;3.03;1.80;;;19.60;73.20;20.60;100414.00;;;;5006354;28;20192;-49
2023/09/01 09:01:37;;;;;;;2.47;1.87;;;19.60;73.30;20.60;100415.00;;;;5013077;28;20847;-49
2023/09/01 09:04:06;;;;;;;3.70;1.97;;;19.60;73.10;20.60;100406.00;;;;5031800;28;20270;-50
2023/09/01 09:06:39;;;;;;;2.23;1.90;;;19.60;73.10;20.60;100415.00;;;;5031353;28;20657;-51
2023/09/01 09:09:12;;;;;;;3.60;2.00;;;19.60;73.00;20.60;100411.00;;;;5017294;28;20178;-51
2023/09/01 09:11:41;;;;;;;4.30;2.00;;;19.60;73.10;20.60;100410.00;;;;5025801;28;20358;-51
2023/09/01 09:14:07;;;;;;;5.20;2.20;;;19.60;73.10;20.60;100410.00;;;;5025690;28;20421;-51
2023/09/01 09:16:33;;;;;;;4.10;1.97;;;19.60;72.90;20.60;100408.00;;;;5027547;28;20193;-52
2023/09/01 09:18:58;;;;;;;7.53;2.20;;;19.60;72.90;20.60;100410.00;;;;5019375;28;20182;-51
2023/09/01 09:21:24;;;;;;;4.33;2.10;;;19.60;72.80;20.60;100407.00;;;;4991953;28;20212;-51
2023/09/01 09:23:50;;;;;;;5.27;2.23;;;19.60;72.70;20.60;100407.00;;;;5019780;28;20570;-50
2023/09/01 09:26:16;;;;;;;3.63;2.17;;;19.60;73.00;20.60;100408.00;;;;5031004;28;20203;-49
2023/09/01 09:28:43;;;;;;;4.57;2.60;;;19.70;72.90;20.60;100416.00;;;;5025204;28;20531;-50
2023/09/01 09:31:08;;;;;;;5.07;1.90;;;19.60;72.80;20.60;100429.00;;;;5014153;28;20203;-50
2023/09/01 09:33:34;;;;;;;2.90;1.97;;;19.70;73.00;20.60;100427.00;;;;5031634;28;20193;-50
2023/09/01 09:36:03;;;;;;;4.33;2.00;;;19.70;73.40;20.60;100430.00;;;;5028333;28;20212;-49
2023/09/01 09:38:40;;;;;;;4.07;2.17;;;19.70;73.30;20.60;100426.00;;;;5041471;28;20179;-50
2023/09/01 09:41:06;;;;;;;3.70;2.00;;;19.70;74.20;20.60;100425.00;;;;5031310;28;20695;-51
2023/09/01 09:43:50;;;;;;;3.03;2.17;;;19.70;73.30;20.60;100426.00;;;;5032828;28;20181;-50
2023/09/01 09:46:16;;;;;;;4.37;2.00;;;19.70;73.30;20.60;100417.00;;;;5029391;28;20190;-50
2023/09/01 09:48:42;;;;;;;2.27;1.73;;;19.70;73.40;20.60;100422.00;;;;5032548;28;20198;-51
2023/09/01 09:51:08;;;;;;;3.43;2.33;;;19.70;73.30;20.60;100420.00;;;;5044314;28;20223;-50
2023/09/01 09:53:36;;;;;;;2.40;1.93;;;19.70;73.30;20.60;100422.00;;;;5041059;28;20187;-51
2023/09/01 09:56:14;;;;;;;3.70;1.80;;;19.70;73.40;20.60;100414.00;;;;5031571;28;20274;-51
2023/09/01 09:58:40;;;;;;;2.00;1.80;;;19.70;73.70;20.60;100425.00;;;;5007521;28;20230;-50
2023/09/01 10:01:35;;;;;;;3.20;2.00;;;19.70;73.40;20.60;100433.00;;;;5030609;28;20232;-50
2023/09/01 10:04:04;;;;;;;3.63;1.97;;;19.70;73.40;20.60;100418.00;;;;5026156;28;20721;-50
2023/09/01 10:06:34;;;;;;;4.13;2.17;;;19.70;73.30;20.60;100413.00;;;;5030590;28;20189;-52
2023/09/01 10:09:01;;;;;;;2.83;1.80;;;19.70;73.20;20.60;100422.00;;;;5030756;28;20185;-51
2023/09/01 10:11:28;;;;;;;2.67;2.00;;;19.80;73.30;20.60;100417.00;;;;5030447;28;20201;-51
2023/09/01 10:13:54;;;;;;;2.00;1.73;;;19.70;73.10;20.60;100417.00;;;;5031285;28;20190;-51
2023/09/01 10:16:19;;;;;;;2.87;2.00;;;19.80;73.20;20.60;100412.00;;;;5012975;28;20193;-52
2023/09/01 10:18:46;;;;;;;4.40;1.90;;;19.80;73.20;20.60;100394.00;;;;5007783;28;20179;-51
2023/09/01 10:21:13;;;;;;;3.47;1.90;;;19.70;73.30;20.70;100418.00;;;;5013179;28;20817;-51
2023/09/01 10:23:38;;;;;;;2.57;1.80;;;19.80;73.50;20.70;100411.00;;;;5013377;28;20193;-50
2023/09/01 10:26:18;;;;;;;4.03;2.00;;;19.80;73.50;20.70;100412.00;;;;5030165;28;20590;-51
2023/09/01 10:29:06;;;;;;;3.47;1.87;;;19.80;73.60;20.70;100431.00;;;;5029826;28;20181;-50
2023/09/01 10:31:33;;;;;;;2.07;1.87;;;19.80;73.80;20.70;100430.00;;;;5026109;28;20248;-50
2023/09/01 10:34:12;;;;;;;4.23;1.90;;;19.80;73.60;20.70;100420.00;;;;5028287;28;20205;-51
2023/09/01 10:36:43;;;;;;;2.47;1.80;;;19.80;73.50;20.70;100428.00;;;;5030313;28;20196;-50
2023/09/01 10:39:23;;;;;;;3.27;2.10;;;19.80;73.50;20.70;100414.00;;;;5028335;28;20179;-50
2023/09/01 10:42:07;;;;;;;9.60;2.13;;;19.80;73.40;20.70;100423.00;;;;5022847;28;20223;-50
2023/09/01 10:44:42;;;;;;;2.50;1.77;;;19.70;73.30;20.60;100421.00;;;;5030510;28;20734;-52
2023/09/01 10:47:31;;;;;;;3.23;1.80;;;19.80;73.50;20.60;100420.00;;;;5027547;28;20961;-50
2023/09/01 10:50:01;;;;;;;3.13;2.10;;;19.80;73.40;20.60;100421.00;;;;5009773;28;20753;-50